Terminal Aerodrome Forecast
Issued by NWS Billings, MT

Home | Current Version | Previous Version | Text Only | Print | Product List | Glossary On
Versions: 1 2 3 4 5 6 7 8 9 10 11 12 13 14 15 16 17 18 19 20 21 22 23 24
000
FTUS45 KBYZ 310533
TAFSHR
TAF
KSHR 310533Z 3106/0106 VRB06KT P6SM BKN200
     FM311200 VRB04KT P6SM SCT150
     FM312000 32017KT P6SM BKN100
     FM010000 32020KT P6SM -SN BKN040 OVC060=

USA.gov is the U.S. government's official web portal to all federal, state and local government web resources and services.